Terminal Aerodrome Forecast
Issued by NWS

Home | Current Version | Previous Version | Text Only | Print | Product List | Glossary On
Versions: 1 2 3 4 5 6 7 8 9 10 11 12 13 14 15 16 17 18 19 20 21 22 23 24 25 26 27 28
000
FTAK31 PANC 211140
TAFAVD
TAF
PAVD 211140Z 2112/2212 VRB04KT P6SM VCSH FEW050 BKN070
     FM211600 VRB03KT 6SM -SHSN FEW030 BKN045
     FM220000 VRB03KT P6SM SCT070 BKN120
      AMD LTD TO CLD VIS AND WIND=

USA.gov is the U.S. government's official web portal to all federal, state and local government web resources and services.